createdAt,value
2019-05-03T00:00:55.530Z,9.28
2019-05-03T00:01:55.536Z,9.28
2019-05-03T00:02:55.515Z,9.34
2019-05-03T00:03:55.491Z,9.30
2019-05-03T00:04:55.483Z,9.32
2019-05-03T00:05:55.492Z,9.24
2019-05-03T00:06:55.487Z,9.32
2019-05-03T00:07:55.450Z,9.25
2019-05-03T00:08:55.433Z,9.28
2019-05-03T00:09:55.421Z,9.28
2019-05-03T00:10:55.414Z,9.30
2019-05-03T00:11:55.409Z,9.28
2019-05-03T00:12:55.417Z,9.30
2019-05-03T00:13:55.372Z,9.21
2019-05-03T00:14:55.370Z,9.21
2019-05-03T00:15:55.366Z,9.24
2019-05-03T00:16:55.354Z,9.20
2019-05-03T00:17:55.378Z,9.15
2019-05-03T00:18:55.322Z,9.12
2019-05-03T00:19:55.318Z,9.23
2019-05-03T00:20:55.296Z,9.23
2019-05-03T00:21:55.296Z,9.15
2019-05-03T00:22:55.305Z,9.10
2019-05-03T00:23:55.291Z,9.12
2019-05-03T00:25:05.366Z,9.06
2019-05-03T00:25:56.245Z,9.05
2019-05-03T00:26:55.240Z,9.06
2019-05-03T00:27:55.244Z,9.12
2019-05-03T00:28:55.217Z,9.04
2019-05-03T00:29:55.220Z,9.13
2019-05-03T00:30:55.195Z,9.13
2019-05-03T00:31:55.175Z,9.18
2019-05-03T00:32:55.193Z,9.13
2019-05-03T00:33:55.149Z,9.15
2019-05-03T00:34:55.153Z,9.16
2019-05-03T00:35:55.142Z,9.18
2019-05-03T00:36:55.129Z,9.12
2019-05-03T00:37:55.137Z,9.15
2019-05-03T00:38:55.104Z,9.12
2019-05-03T00:39:55.086Z,9.09
2019-05-03T00:40:55.087Z,9.12
2019-05-03T00:41:55.067Z,9.09
2019-05-03T00:42:55.083Z,9.15
2019-05-03T00:43:55.057Z,9.12
2019-05-03T00:44:55.038Z,9.13
2019-05-03T00:45:55.031Z,9.13
2019-05-03T00:46:55.021Z,9.09
2019-05-03T00:47:55.030Z,9.04
2019-05-03T00:48:55.008Z,9.04
2019-05-03T00:49:54.988Z,9.09
2019-05-03T00:50:54.980Z,9.02
2019-05-03T00:51:54.962Z,8.91
2019-05-03T00:52:54.961Z,8.93
2019-05-03T00:53:54.936Z,8.94
2019-05-03T00:54:54.933Z,8.96
2019-05-03T00:55:54.928Z,8.93
2019-05-03T00:56:54.913Z,9.01
2019-05-03T00:57:54.915Z,8.96
2019-05-03T00:58:54.870Z,8.91
2019-05-03T00:59:54.865Z,8.94
2019-05-03T01:00:54.873Z,8.96
2019-05-03T01:01:54.855Z,8.91
2019-05-03T01:02:54.849Z,8.96
2019-05-03T01:03:54.831Z,8.94
2019-05-03T01:04:54.822Z,8.99
2019-05-03T01:05:54.809Z,8.99
2019-05-03T01:06:54.813Z,8.88
2019-05-03T01:07:54.824Z,8.90
2019-05-03T01:08:54.777Z,8.93
2019-05-03T01:09:54.777Z,8.90
2019-05-03T01:10:54.753Z,8.88
2019-05-03T01:11:54.739Z,8.86
2019-05-03T01:12:54.728Z,8.83
2019-05-03T01:13:54.735Z,8.79
2019-05-03T01:14:54.717Z,8.83
2019-05-03T01:15:54.717Z,8.86
2019-05-03T01:16:54.675Z,8.79
2019-05-03T01:17:54.690Z,8.84
2019-05-03T01:18:54.670Z,8.69
2019-05-03T01:19:54.652Z,8.71
2019-05-03T01:20:54.649Z,8.79
2019-05-03T01:21:54.637Z,8.72
2019-05-03T01:22:54.616Z,8.62
2019-05-03T01:23:54.632Z,8.68
2019-05-03T01:24:54.596Z,8.72
2019-05-03T01:25:54.577Z,8.66
2019-05-03T01:26:54.580Z,8.68
2019-05-03T01:27:54.566Z,8.65
2019-05-03T01:28:54.577Z,8.72
2019-05-03T01:29:54.540Z,8.73
2019-05-03T01:30:54.529Z,8.62
2019-05-03T01:31:54.515Z,8.72
2019-05-03T01:32:54.543Z,8.68
2019-05-03T01:33:54.539Z,8.63
2019-05-03T01:34:54.481Z,8.66
2019-05-03T01:35:54.477Z,8.63
2019-05-03T01:36:54.464Z,8.72
2019-05-03T01:37:54.450Z,8.68
2019-05-03T01:38:54.478Z,8.71
2019-05-03T01:39:54.435Z,8.55
2019-05-03T01:40:54.419Z,8.66
2019-05-03T01:41:54.423Z,8.57
2019-05-03T01:42:54.393Z,8.62
2019-05-03T01:43:54.380Z,8.62
2019-05-03T01:44:54.399Z,8.57
2019-05-03T01:45:54.366Z,8.58
2019-05-03T01:46:54.355Z,8.53
2019-05-03T01:47:54.353Z,8.51
2019-05-03T01:48:54.338Z,8.58
2019-05-03T01:49:54.335Z,8.60
2019-05-03T01:50:54.317Z,8.50
2019-05-03T01:51:54.310Z,8.57
2019-05-03T01:52:54.292Z,8.47
2019-05-03T01:53:54.302Z,8.47
2019-05-03T01:54:54.267Z,8.54
2019-05-03T01:55:54.254Z,8.44
2019-05-03T01:56:58.688Z,8.47
2019-05-03T01:57:54.221Z,8.54
2019-05-03T01:58:54.248Z,8.45
2019-05-03T01:59:54.215Z,8.37
2019-05-03T02:00:54.210Z,8.44
2019-05-03T02:01:54.192Z,8.40
2019-05-03T02:02:54.183Z,8.35
2019-05-03T02:03:54.173Z,8.37
2019-05-03T02:04:54.174Z,8.33
2019-05-03T02:05:54.152Z,8.28
2019-05-03T02:06:54.135Z,8.26
2019-05-03T02:07:54.119Z,8.22
2019-05-03T02:08:54.140Z,8.28
2019-05-03T02:09:54.097Z,8.26
2019-05-03T02:10:54.105Z,8.28
2019-05-03T02:11:54.081Z,8.22
2019-05-03T02:12:54.066Z,8.21
2019-05-03T02:13:54.060Z,8.25
2019-05-03T02:14:54.063Z,8.21
2019-05-03T02:15:54.026Z,8.29
2019-05-03T02:16:54.023Z,8.29
2019-05-03T02:17:54.007Z,8.29
2019-05-03T02:18:54.005Z,8.29
2019-05-03T02:19:54.016Z,8.28
2019-05-03T02:20:53.976Z,8.22
2019-05-03T02:21:53.974Z,8.21
2019-05-03T02:22:53.960Z,8.22
2019-05-03T02:23:53.945Z,8.25
2019-05-03T02:24:53.961Z,8.25
2019-05-03T02:25:56.760Z,8.22
2019-05-03T02:26:53.908Z,8.15
2019-05-03T02:27:53.910Z,8.11
2019-05-03T02:28:53.885Z,8.12
2019-05-03T02:29:53.896Z,8.17
2019-05-03T02:30:53.878Z,8.12
2019-05-03T02:31:53.872Z,8.11
2019-05-03T02:32:53.856Z,8.02
2019-05-03T02:33:53.839Z,8.17
2019-05-03T02:34:53.850Z,8.22
2019-05-03T02:35:53.808Z,8.17
2019-05-03T02:36:54.010Z,8.11
2019-05-03T02:37:53.801Z,8.14
2019-05-03T02:38:53.841Z,8.04
2019-05-03T02:39:53.789Z,8.12
2019-05-03T02:40:53.757Z,8.12
2019-05-03T02:41:59.754Z,8.08
2019-05-03T02:42:55.289Z,8.04
2019-05-03T02:43:56.062Z,8.17
2019-05-03T02:44:55.359Z,8.12
2019-05-03T02:45:56.515Z,8.07
2019-05-03T02:46:56.275Z,8.02
2019-05-03T02:47:55.416Z,8.10
2019-05-03T02:48:55.714Z,8.14
2019-05-03T02:49:56.005Z,8.03
2019-05-03T02:50:56.043Z,7.99
2019-05-03T02:51:55.489Z,8.10
2019-05-03T02:52:55.177Z,8.11
2019-05-03T02:53:56.739Z,8.07
2019-05-03T02:54:55.399Z,8.08
2019-05-03T02:55:55.937Z,8.04
2019-05-03T02:56:55.970Z,8.04
2019-05-03T02:57:56.038Z,7.96
2019-05-03T02:58:55.757Z,7.94
2019-05-03T02:59:54.935Z,8.03
2019-05-03T03:00:56.116Z,8.08
2019-05-03T03:01:55.812Z,8.10
2019-05-03T03:02:55.653Z,7.99
2019-05-03T03:03:56.049Z,7.96
2019-05-03T03:04:56.172Z,7.94
2019-05-03T03:05:55.950Z,8.03
2019-05-03T03:06:55.626Z,7.94
2019-05-03T03:07:55.738Z,7.96
2019-05-03T03:08:55.989Z,8.00
2019-05-03T03:09:55.636Z,8.03
2019-05-03T03:10:55.585Z,8.03
2019-05-03T03:11:55.735Z,7.99
2019-05-03T03:12:55.274Z,8.07
2019-05-03T03:13:55.209Z,8.03
2019-05-03T03:14:55.107Z,7.97
2019-05-03T03:15:55.383Z,7.96
2019-05-03T03:16:55.825Z,7.93
2019-05-03T03:17:55.818Z,7.94
2019-05-03T03:18:55.693Z,7.92
2019-05-03T03:19:55.211Z,7.87
2019-05-03T03:20:55.229Z,7.84
2019-05-03T03:21:56.105Z,7.94
2019-05-03T03:22:55.511Z,7.94
2019-05-03T03:23:55.910Z,7.87
2019-05-03T03:24:55.744Z,7.90
2019-05-03T03:25:55.620Z,7.82
2019-05-03T03:26:56.314Z,7.82
2019-05-03T03:27:55.622Z,7.78
2019-05-03T03:28:55.711Z,7.79
2019-05-03T03:29:55.268Z,7.72
2019-05-03T03:30:57.185Z,7.71
2019-05-03T03:31:57.450Z,7.66
2019-05-03T03:32:57.794Z,7.59
2019-05-03T03:33:58.877Z,7.56
2019-05-03T03:35:00.600Z,7.63
2019-05-03T03:36:01.279Z,7.50
2019-05-03T03:37:00.785Z,7.52
2019-05-03T03:37:55.987Z,7.52
2019-05-03T03:38:55.396Z,7.50
2019-05-03T03:39:53.106Z,7.45
2019-05-03T03:40:56.419Z,7.50
2019-05-03T03:41:55.748Z,7.55
2019-05-03T03:42:55.531Z,7.35
2019-05-03T03:43:55.627Z,7.40
2019-05-03T03:44:53.049Z,7.40
2019-05-03T03:45:55.588Z,7.32
2019-05-03T03:46:55.846Z,7.35
2019-05-03T03:47:55.797Z,7.20
2019-05-03T03:48:55.381Z,7.26
2019-05-03T03:49:55.215Z,7.19
2019-05-03T03:50:55.911Z,7.12
2019-05-03T03:51:52.974Z,7.09
2019-05-03T03:52:55.794Z,7.15
2019-05-03T03:53:55.448Z,7.05
2019-05-03T03:54:55.286Z,7.02
2019-05-03T03:55:52.939Z,6.95
2019-05-03T03:57:02.165Z,6.98
2019-05-03T03:57:55.663Z,6.91
2019-05-03T03:58:55.378Z,6.79
2019-05-03T03:59:52.896Z,6.86
2019-05-03T04:00:55.359Z,6.79
2019-05-03T04:01:55.095Z,6.81
2019-05-03T04:02:55.308Z,6.79
2019-05-03T04:03:52.838Z,6.79
2019-05-03T04:04:52.828Z,6.79
2019-05-03T04:05:55.387Z,6.69
2019-05-03T04:06:55.718Z,6.79
2019-05-03T04:07:56.065Z,6.73
2019-05-03T04:08:52.811Z,6.77
2019-05-03T04:09:52.778Z,6.73
2019-05-03T04:10:55.721Z,6.69
2019-05-03T04:11:52.767Z,6.77
2019-05-03T04:12:52.753Z,6.77
2019-05-03T04:13:52.742Z,6.69
2019-05-03T04:14:52.733Z,6.71
2019-05-03T04:15:52.722Z,6.87
2019-05-03T04:16:52.729Z,6.81
2019-05-03T04:17:52.726Z,6.86
2019-05-03T04:18:55.008Z,6.84
2019-05-03T04:19:52.686Z,6.86
2019-05-03T04:20:52.658Z,6.79
2019-05-03T04:21:52.676Z,6.84
2019-05-03T04:22:52.634Z,6.87
2019-05-03T04:23:55.472Z,6.89
2019-05-03T04:24:55.142Z,6.94
2019-05-03T04:25:52.605Z,6.98
2019-05-03T04:26:52.615Z,7.04
2019-05-03T04:27:52.582Z,7.17
2019-05-03T04:28:52.565Z,7.29
2019-05-03T04:29:52.558Z,7.19
2019-05-03T04:30:55.206Z,7.27
2019-05-03T04:31:52.555Z,7.35
2019-05-03T04:32:52.537Z,7.37
2019-05-03T04:33:52.534Z,7.47
2019-05-03T04:34:52.510Z,7.44
2019-05-03T04:35:52.497Z,7.55
2019-05-03T04:36:52.495Z,7.56
2019-05-03T04:37:52.468Z,7.50
2019-05-03T04:38:52.463Z,7.58
2019-05-03T04:39:52.485Z,7.62
2019-05-03T04:40:52.442Z,7.66
2019-05-03T04:41:52.453Z,7.74
2019-05-03T04:42:52.405Z,7.77
2019-05-03T04:43:55.235Z,7.71
2019-05-03T04:44:52.408Z,7.79
2019-05-03T04:45:52.392Z,7.94
2019-05-03T04:46:56.000Z,8.00
2019-05-03T04:47:55.666Z,8.54
2019-05-03T04:48:52.354Z,8.90
2019-05-03T04:49:52.342Z,9.30
2019-05-03T04:50:54.967Z,9.57
2019-05-03T04:51:52.322Z,9.64
2019-05-03T04:52:52.328Z,9.58
2019-05-03T04:53:52.301Z,9.48
2019-05-03T04:54:52.281Z,9.40
2019-05-03T04:55:52.267Z,9.30
2019-05-03T04:56:52.283Z,9.13
2019-05-03T04:57:52.275Z,9.20
2019-05-03T04:58:52.229Z,8.99
2019-05-03T04:59:52.242Z,8.87
2019-05-03T05:00:52.197Z,8.75
2019-05-03T05:01:52.189Z,8.76
2019-05-03T05:02:54.876Z,8.71
2019-05-03T05:03:52.178Z,8.55
2019-05-03T05:04:52.167Z,8.57
2019-05-03T05:05:52.154Z,8.63
2019-05-03T05:06:52.127Z,8.55
2019-05-03T05:07:52.116Z,8.51
2019-05-03T05:08:52.134Z,8.62
2019-05-03T05:09:52.104Z,8.58
2019-05-03T05:10:52.096Z,8.55
2019-05-03T05:11:52.097Z,8.55
2019-05-03T05:12:52.099Z,8.57
2019-05-03T05:13:52.058Z,8.53
2019-05-03T05:14:52.041Z,8.44
2019-05-03T05:15:52.038Z,8.37
2019-05-03T05:16:52.030Z,8.36
2019-05-03T05:17:52.036Z,8.37
2019-05-03T05:18:51.999Z,8.37
2019-05-03T05:19:52.223Z,8.48
2019-05-03T05:20:51.974Z,8.45
2019-05-03T05:21:51.995Z,8.53
2019-05-03T05:22:51.994Z,8.50
2019-05-03T05:23:51.958Z,8.48
2019-05-03T05:24:51.940Z,8.68
2019-05-03T05:25:51.944Z,8.68
2019-05-03T05:26:51.916Z,9.61
2019-05-03T05:27:54.872Z,10.40
2019-05-03T05:28:51.911Z,11.27
2019-05-03T05:29:51.881Z,12.09
2019-05-03T05:30:51.873Z,12.66
2019-05-03T05:31:51.863Z,13.15
2019-05-03T05:32:51.855Z,13.67
2019-05-03T05:33:51.861Z,13.91
2019-05-03T05:34:51.835Z,14.25
2019-05-03T05:35:51.823Z,14.80
2019-05-03T05:36:51.813Z,15.09
2019-05-03T05:37:51.815Z,15.11
2019-05-03T05:38:51.782Z,15.23
2019-05-03T05:39:51.786Z,15.41
2019-05-03T05:40:51.762Z,15.68
2019-05-03T05:41:51.742Z,15.86
2019-05-03T05:42:51.792Z,15.86
2019-05-03T05:43:51.727Z,15.66
2019-05-03T05:44:51.725Z,15.54
2019-05-03T05:45:51.717Z,15.17
2019-05-03T05:46:51.685Z,15.03
2019-05-03T05:47:51.682Z,15.38
2019-05-03T05:48:52.125Z,15.61
2019-05-03T05:49:51.702Z,15.57
2019-05-03T05:50:51.656Z,15.63
2019-05-03T05:51:51.641Z,15.56
2019-05-03T05:52:51.620Z,15.30
2019-05-03T05:53:51.611Z,14.81
2019-05-03T05:54:51.627Z,14.37
2019-05-03T05:55:51.617Z,13.94
2019-05-03T05:56:51.591Z,13.73
2019-05-03T05:58:02.011Z,13.80
2019-05-03T05:58:52.562Z,14.13
2019-05-03T05:59:51.548Z,14.01
2019-05-03T06:00:51.568Z,14.88
2019-05-03T06:01:51.525Z,14.95
2019-05-03T06:02:51.529Z,15.79
2019-05-03T06:03:51.512Z,16.55
2019-05-03T06:04:51.496Z,16.95
2019-05-03T06:05:51.480Z,17.43
2019-05-03T06:06:51.501Z,17.59
2019-05-03T06:07:51.473Z,17.81
2019-05-03T06:08:51.455Z,18.22
2019-05-03T06:09:51.448Z,18.46
2019-05-03T06:10:51.447Z,18.79
2019-05-03T06:11:51.432Z,19.15
2019-05-03T06:12:51.397Z,19.36
2019-05-03T06:13:51.391Z,19.88
2019-05-03T06:14:51.402Z,19.79
2019-05-03T06:15:51.376Z,18.87
2019-05-03T06:16:51.378Z,18.58
2019-05-03T06:17:51.377Z,19.20
2019-05-03T06:18:51.337Z,20.21
2019-05-03T06:19:51.325Z,20.79
2019-05-03T06:20:51.319Z,21.17
2019-05-03T06:21:51.336Z,19.79
2019-05-03T06:22:51.335Z,19.61
2019-05-03T06:23:51.286Z,20.35
2019-05-03T06:24:51.318Z,20.03
2019-05-03T06:25:51.292Z,20.79
2019-05-03T06:26:51.256Z,21.29
2019-05-03T06:27:51.244Z,20.18
2019-05-03T06:28:51.251Z,19.57
2019-05-03T06:29:51.243Z,19.80
2019-05-03T06:30:51.199Z,20.28
2019-05-03T06:31:51.187Z,19.02
2019-05-03T06:32:51.188Z,19.36
2019-05-03T06:33:52.572Z,19.75
2019-05-03T06:34:51.175Z,20.03
2019-05-03T06:35:51.155Z,20.62
2019-05-03T06:36:51.533Z,21.08
2019-05-03T06:37:51.135Z,20.02
2019-05-03T06:38:51.136Z,20.71
2019-05-03T06:39:51.139Z,21.48
2019-05-03T06:40:51.094Z,21.34
2019-05-03T06:41:51.094Z,20.16
2019-05-03T06:42:54.790Z,20.39
2019-05-03T06:43:52.053Z,20.93
2019-05-03T06:44:51.080Z,20.90
2019-05-03T06:45:51.044Z,19.95
2019-05-03T06:46:51.028Z,18.80
2019-05-03T06:47:51.024Z,17.99
2019-05-03T06:48:51.011Z,18.50
2019-05-03T06:49:51.005Z,19.20
2019-05-03T06:50:51.024Z,19.42
2019-05-03T06:51:50.990Z,18.50
2019-05-03T06:52:50.967Z,17.73
2019-05-03T06:53:50.951Z,17.63
2019-05-03T06:54:50.951Z,17.76
2019-05-03T06:55:50.929Z,18.27
2019-05-03T06:56:50.966Z,18.44
2019-05-03T06:57:50.911Z,18.73
2019-05-03T06:58:50.910Z,18.65
2019-05-03T06:59:50.892Z,17.92
2019-05-03T07:00:50.892Z,17.07
2019-05-03T07:01:50.890Z,16.62
2019-05-03T07:02:50.870Z,16.06
2019-05-03T07:03:50.839Z,15.42
2019-05-03T07:04:50.845Z,14.95
2019-05-03T07:05:50.820Z,14.56
2019-05-03T07:06:50.836Z,14.31
2019-05-03T07:07:50.806Z,15.17
2019-05-03T07:08:50.791Z,15.57
2019-05-03T07:09:50.779Z,15.23
2019-05-03T07:10:50.812Z,16.33
2019-05-03T07:11:50.786Z,18.15
2019-05-03T07:12:50.777Z,19.32
2019-05-03T07:13:50.741Z,18.61
2019-05-03T07:14:50.725Z,17.89
2019-05-03T07:15:50.710Z,17.54
2019-05-03T07:16:50.698Z,17.50
2019-05-03T07:17:50.704Z,18.06
2019-05-03T07:18:50.672Z,18.12
2019-05-03T07:19:50.676Z,17.41
2019-05-03T07:20:50.649Z,16.88
2019-05-03T07:21:50.653Z,16.26
2019-05-03T07:22:50.647Z,15.79
2019-05-03T07:23:50.631Z,15.35
2019-05-03T07:24:50.606Z,15.11
2019-05-03T07:25:50.606Z,14.81
2019-05-03T07:26:50.617Z,14.72
2019-05-03T07:27:50.586Z,14.71
2019-05-03T07:28:50.573Z,15.46
2019-05-03T07:29:50.577Z,14.90
2019-05-03T07:30:50.544Z,14.50
2019-05-03T07:31:50.558Z,14.17
2019-05-03T07:32:50.571Z,13.87
2019-05-03T07:33:50.499Z,13.65
2019-05-03T07:34:50.502Z,15.49
2019-05-03T07:35:50.497Z,17.41
2019-05-03T07:36:50.491Z,18.95
2019-05-03T07:37:50.487Z,20.13
2019-05-03T07:38:50.449Z,21.17
2019-05-03T07:39:50.446Z,22.01
2019-05-03T07:40:50.452Z,21.45
2019-05-03T07:41:50.454Z,19.94
2019-05-03T07:42:50.408Z,18.84
2019-05-03T07:43:50.402Z,18.10
2019-05-03T07:44:50.388Z,17.55
2019-05-03T07:45:50.372Z,17.11
2019-05-03T07:46:50.387Z,16.80
2019-05-03T07:47:51.128Z,16.81
2019-05-03T07:48:50.357Z,18.40
2019-05-03T07:49:50.338Z,17.32
2019-05-03T07:50:50.342Z,17.69
2019-05-03T07:51:50.317Z,19.38
2019-05-03T07:52:50.339Z,20.65
2019-05-03T07:53:50.292Z,21.78
2019-05-03T07:54:50.295Z,22.60
2019-05-03T07:55:50.275Z,23.38
2019-05-03T07:56:50.266Z,23.31
2019-05-03T07:57:50.247Z,23.72
2019-05-03T07:58:59.993Z,24.13
2019-05-03T07:59:51.228Z,24.32
2019-05-03T08:01:03.559Z,24.59
2019-05-03T08:01:51.211Z,22.75
2019-05-03T08:02:50.216Z,23.11
2019-05-03T08:03:50.187Z,23.82
2019-05-03T08:04:50.172Z,21.81
2019-05-03T08:05:50.170Z,20.51
2019-05-03T08:06:50.159Z,20.81
2019-05-03T08:07:50.164Z,21.51
2019-05-03T08:08:50.153Z,21.08
2019-05-03T08:09:50.126Z,20.21
2019-05-03T08:10:50.106Z,19.02
2019-05-03T08:11:50.099Z,18.13
2019-05-03T08:12:50.099Z,17.74
2019-05-03T08:13:50.105Z,18.91
2019-05-03T08:14:50.059Z,18.36
2019-05-03T08:15:50.051Z,18.55
2019-05-03T08:16:50.035Z,18.70
2019-05-03T08:17:50.025Z,19.08
2019-05-03T08:18:50.032Z,18.98
2019-05-03T08:19:50.035Z,20.23
2019-05-03T08:20:50.002Z,21.54
2019-05-03T08:21:50.012Z,22.69
2019-05-03T08:22:49.976Z,23.72
2019-05-03T08:23:49.959Z,24.45
2019-05-03T08:24:49.969Z,25.32
2019-05-03T08:25:50.937Z,24.56
2019-05-03T08:26:49.946Z,23.92
2019-05-03T08:27:49.944Z,22.83
2019-05-03T08:28:49.921Z,21.63
2019-05-03T08:29:49.921Z,20.77
2019-05-03T08:30:49.896Z,20.46
2019-05-03T08:31:49.879Z,22.34
2019-05-03T08:32:49.916Z,23.45
2019-05-03T08:33:49.877Z,24.68
2019-05-03T08:34:49.854Z,25.59
2019-05-03T08:35:49.850Z,26.57
2019-05-03T08:36:49.828Z,27.26
2019-05-03T08:37:49.837Z,27.82
2019-05-03T08:38:49.819Z,28.33
2019-05-03T08:39:49.846Z,28.58
2019-05-03T08:40:49.796Z,26.95
2019-05-03T08:41:49.779Z,26.69
2019-05-03T08:42:49.760Z,27.80
2019-05-03T08:43:49.751Z,26.87
2019-05-03T08:44:49.742Z,27.32
2019-05-03T08:45:49.747Z,28.16
2019-05-03T08:46:49.742Z,27.02
2019-05-03T08:47:49.713Z,25.31
2019-05-03T08:48:49.696Z,24.01
2019-05-03T08:49:49.704Z,22.86
2019-05-03T08:50:49.717Z,22.04
2019-05-03T08:51:49.677Z,21.26
2019-05-03T08:52:49.666Z,20.59
2019-05-03T08:53:49.661Z,20.08
2019-05-03T08:54:49.636Z,21.88
2019-05-03T08:55:49.626Z,23.60
2019-05-03T08:56:49.628Z,23.62
2019-05-03T08:57:49.620Z,22.44
2019-05-03T08:58:49.602Z,21.60
2019-05-03T08:59:49.597Z,21.85
2019-05-03T09:00:49.634Z,21.72
2019-05-03T09:01:49.558Z,20.77
2019-05-03T09:02:49.556Z,20.59
2019-05-03T09:03:49.552Z,19.79
2019-05-03T09:04:49.545Z,19.11
2019-05-03T09:05:49.561Z,18.36
2019-05-03T09:06:49.527Z,19.84
2019-05-03T09:07:50.884Z,20.95
2019-05-03T09:08:49.475Z,19.69
2019-05-03T09:09:49.469Z,18.95
2019-05-03T09:10:49.476Z,18.29
2019-05-03T09:11:49.462Z,17.88
2019-05-03T09:12:49.472Z,17.66
2019-05-03T09:13:49.439Z,17.48
2019-05-03T09:14:49.420Z,17.76
2019-05-03T09:15:49.405Z,19.21
2019-05-03T09:16:49.402Z,19.93
2019-05-03T09:17:49.483Z,19.54
2019-05-03T09:18:49.368Z,19.23
2019-05-03T09:19:49.361Z,19.20
2019-05-03T09:20:49.353Z,18.90
2019-05-03T09:21:49.342Z,18.64
2019-05-03T09:22:49.335Z,18.13
2019-05-03T09:23:49.346Z,17.87
2019-05-03T09:24:49.312Z,17.48
2019-05-03T09:25:49.468Z,18.40
2019-05-03T09:26:49.292Z,19.72
2019-05-03T09:27:49.294Z,19.15
2019-05-03T09:28:49.255Z,18.46
2019-05-03T09:29:49.256Z,17.97
2019-05-03T09:30:49.263Z,17.51
2019-05-03T09:31:49.241Z,17.10
2019-05-03T09:32:49.248Z,16.83
2019-05-03T09:33:49.249Z,16.68
2019-05-03T09:34:49.205Z,18.57
2019-05-03T09:35:49.189Z,20.09
2019-05-03T09:36:49.192Z,20.99
2019-05-03T09:37:49.177Z,21.76
2019-05-03T09:38:49.174Z,22.96
2019-05-03T09:39:49.157Z,23.62
2019-05-03T09:40:51.867Z,22.82
2019-05-03T09:41:49.121Z,22.57
2019-05-03T09:42:49.132Z,22.65
2019-05-03T09:43:49.132Z,23.02
2019-05-03T09:44:49.092Z,23.47
2019-05-03T09:45:49.092Z,23.57
2019-05-03T09:46:49.068Z,23.61
2019-05-03T09:47:49.058Z,23.38
2019-05-03T09:48:49.053Z,24.10
2019-05-03T09:49:49.064Z,25.07
2019-05-03T09:50:49.029Z,25.98
2019-05-03T09:51:49.017Z,26.69
2019-05-03T09:52:48.999Z,27.53
2019-05-03T09:53:48.987Z,27.21
2019-05-03T09:54:49.011Z,27.79
2019-05-03T09:55:48.976Z,28.17
2019-05-03T09:56:56.074Z,28.35
2019-05-03T09:57:49.950Z,28.47
2019-05-03T09:58:48.937Z,27.26
2019-05-03T09:59:57.345Z,25.74
2019-05-03T10:00:49.926Z,24.52
2019-05-03T10:01:48.916Z,23.29
2019-05-03T10:02:48.901Z,22.13
2019-05-03T10:03:48.900Z,21.24
2019-05-03T10:04:48.918Z,20.64
2019-05-03T10:05:48.878Z,20.25
2019-05-03T10:06:48.890Z,20.18
2019-05-03T10:07:48.846Z,20.71
2019-05-03T10:08:48.851Z,20.99
2019-05-03T10:09:48.833Z,21.92
2019-05-03T10:10:48.836Z,22.93
2019-05-03T10:11:48.795Z,24.16
2019-05-03T10:12:48.787Z,24.97
2019-05-03T10:13:49.078Z,25.43
2019-05-03T10:14:48.789Z,25.24
2019-05-03T10:15:48.799Z,26.35
2019-05-03T10:16:48.764Z,26.87
2019-05-03T10:17:48.751Z,26.94
2019-05-03T10:18:48.726Z,27.58
2019-05-03T10:19:48.715Z,27.98
2019-05-03T10:20:48.733Z,27.23
2019-05-03T10:21:48.709Z,26.47
2019-05-03T10:22:48.683Z,25.74
2019-05-03T10:23:48.683Z,25.02
2019-05-03T10:24:48.675Z,23.82
2019-05-03T10:25:48.672Z,23.29
2019-05-03T10:26:48.647Z,22.90
2019-05-03T10:27:48.640Z,22.04
2019-05-03T10:28:48.638Z,21.35
2019-05-03T10:29:48.625Z,20.80
2019-05-03T10:30:48.626Z,20.66
2019-05-03T10:31:48.597Z,21.88
2019-05-03T10:32:48.576Z,22.60
2019-05-03T10:33:48.571Z,23.70
2019-05-03T10:34:48.573Z,24.47
2019-05-03T10:35:48.575Z,24.71
2019-05-03T10:36:48.546Z,24.71
2019-05-03T10:37:48.534Z,24.54
2019-05-03T10:38:48.524Z,24.77
2019-05-03T10:39:48.517Z,24.97
2019-05-03T10:40:48.528Z,24.24
2019-05-03T10:41:48.499Z,23.58
2019-05-03T10:42:48.473Z,23.17
2019-05-03T10:43:48.459Z,22.52
2019-05-03T10:44:48.454Z,21.81
2019-05-03T10:45:48.445Z,21.21
2019-05-03T10:46:48.453Z,20.71
2019-05-03T10:47:48.427Z,20.24
2019-05-03T10:48:48.423Z,19.57
2019-05-03T10:49:48.419Z,19.25
2019-05-03T10:50:50.874Z,18.83
2019-05-03T10:51:48.394Z,18.59
2019-05-03T10:52:48.391Z,18.37
2019-05-03T10:53:48.363Z,18.18
2019-05-03T10:54:48.346Z,18.06
2019-05-03T10:55:48.334Z,17.95
2019-05-03T10:56:48.346Z,18.47
2019-05-03T10:57:48.314Z,18.68
2019-05-03T10:58:48.317Z,18.61
2019-05-03T10:59:48.303Z,18.34
2019-05-03T11:00:52.722Z,18.19
2019-05-03T11:01:49.290Z,18.19
2019-05-03T11:02:48.263Z,18.06
2019-05-03T11:03:48.248Z,18.02
2019-05-03T11:04:48.238Z,18.18
2019-05-03T11:05:48.229Z,17.89
2019-05-03T11:06:48.246Z,17.92
2019-05-03T11:07:48.212Z,17.78
2019-05-03T11:08:48.197Z,17.54
2019-05-03T11:09:52.252Z,17.64
2019-05-03T11:10:48.177Z,17.46
2019-05-03T11:11:48.206Z,17.62
2019-05-03T11:12:48.159Z,17.85
2019-05-03T11:13:48.152Z,17.67
2019-05-03T11:14:48.126Z,17.47
2019-05-03T11:15:48.115Z,17.04
2019-05-03T11:16:48.128Z,16.80
2019-05-03T11:17:48.124Z,16.48
2019-05-03T11:18:48.097Z,16.38
2019-05-03T11:19:48.085Z,16.33
2019-05-03T11:20:48.076Z,16.12
2019-05-03T11:21:48.092Z,15.96
2019-05-03T11:22:48.045Z,16.09
2019-05-03T11:23:48.026Z,16.23
2019-05-03T11:24:48.025Z,16.68
2019-05-03T11:25:48.016Z,18.09
2019-05-03T11:26:48.011Z,19.13
2019-05-03T11:27:47.998Z,19.94
2019-05-03T11:28:47.979Z,20.76
2019-05-03T11:29:47.977Z,21.34
2019-05-03T11:30:55.674Z,21.98
2019-05-03T11:31:48.953Z,22.50
2019-05-03T11:32:47.963Z,23.09
2019-05-03T11:33:47.927Z,23.53
2019-05-03T11:34:47.912Z,23.94
2019-05-03T11:35:47.897Z,23.38
2019-05-03T11:36:47.887Z,22.86
2019-05-03T11:37:47.891Z,22.22
2019-05-03T11:38:47.916Z,21.76
2019-05-03T11:39:47.870Z,21.21
2019-05-03T11:40:47.847Z,20.68
2019-05-03T11:41:47.839Z,20.09
2019-05-03T11:42:47.851Z,19.43
2019-05-03T11:43:47.831Z,18.97
2019-05-03T11:44:47.818Z,18.55
2019-05-03T11:45:47.821Z,18.17
2019-05-03T11:46:47.772Z,17.94
2019-05-03T11:47:47.793Z,17.79
2019-05-03T11:48:47.748Z,17.82
2019-05-03T11:49:47.755Z,17.76
2019-05-03T11:50:47.759Z,17.82
2019-05-03T11:51:47.735Z,18.06
2019-05-03T11:52:47.720Z,18.18
2019-05-03T11:53:47.758Z,19.01
2019-05-03T11:54:47.690Z,19.87
2019-05-03T11:55:47.682Z,20.83
2019-05-03T11:56:47.676Z,21.98
2019-05-03T11:57:47.671Z,23.05
2019-05-03T11:58:47.650Z,23.08
2019-05-03T11:59:47.662Z,23.46
2019-05-03T12:00:47.623Z,23.89
2019-05-03T12:01:47.615Z,24.01
2019-05-03T12:02:47.620Z,24.02
2019-05-03T12:03:47.597Z,24.57
2019-05-03T12:04:47.590Z,25.30
2019-05-03T12:05:47.604Z,25.68
2019-05-03T12:06:47.572Z,25.30
2019-05-03T12:07:47.559Z,24.39
2019-05-03T12:08:47.539Z,24.80
2019-05-03T12:09:47.531Z,24.94
2019-05-03T12:10:55.250Z,25.98
2019-05-03T12:11:48.522Z,26.96
2019-05-03T12:12:47.498Z,26.96
2019-05-03T12:13:47.491Z,26.73
2019-05-03T12:14:47.498Z,26.91
2019-05-03T12:15:47.508Z,26.81
2019-05-03T12:17:54.205Z,26.74
2019-05-03T12:18:53.418Z,27.11
2019-05-03T12:19:49.624Z,27.73
2019-05-03T12:20:48.493Z,28.13
2019-05-03T12:21:48.046Z,28.28
2019-05-03T12:22:47.930Z,27.92
2019-05-03T12:23:48.051Z,27.80
2019-05-03T12:24:48.091Z,27.28
2019-05-03T12:25:47.847Z,26.99
2019-05-03T12:26:47.359Z,25.86
2019-05-03T12:27:47.347Z,24.69
2019-05-03T12:28:47.359Z,23.61
2019-05-03T12:29:47.334Z,22.25
2019-05-03T12:30:47.322Z,21.88
2019-05-03T12:31:47.337Z,21.59
2019-05-03T12:32:47.296Z,20.72
2019-05-03T12:33:47.282Z,20.18
2019-05-03T12:34:47.290Z,19.80
2019-05-03T12:35:47.272Z,19.47
2019-05-03T12:36:47.257Z,19.01
2019-05-03T12:37:47.267Z,18.84
2019-05-03T12:38:47.238Z,18.58
2019-05-03T12:39:47.215Z,18.44
2019-05-03T12:40:47.212Z,18.25
2019-05-03T12:41:48.188Z,18.13
2019-05-03T12:42:47.226Z,18.15
2019-05-03T12:43:47.185Z,18.03
2019-05-03T12:44:47.157Z,18.04
2019-05-03T12:45:47.181Z,17.94
2019-05-03T12:46:47.155Z,17.99
2019-05-03T12:47:47.133Z,18.07
2019-05-03T12:48:47.164Z,18.04
2019-05-03T12:49:47.128Z,18.12
2019-05-03T12:50:47.602Z,18.00
2019-05-03T12:51:47.085Z,17.95
2019-05-03T12:52:50.292Z,17.97
2019-05-03T12:53:47.083Z,18.17
2019-05-03T12:54:47.058Z,18.40
2019-05-03T12:55:47.058Z,18.40
2019-05-03T12:56:47.049Z,18.25
2019-05-03T12:57:47.031Z,18.19
2019-05-03T12:58:47.030Z,18.13
2019-05-03T12:59:47.004Z,18.19
2019-05-03T13:00:48.640Z,18.10
2019-05-03T13:01:46.994Z,17.97
2019-05-03T13:02:46.966Z,18.02
2019-05-03T13:03:46.973Z,18.19
2019-05-03T13:04:46.946Z,18.22